Cato Island, Australia
Current Conditions -  °F | °C
As of 4:00 PM on Sunday 26 Oct 2014 (Local Time) from YBUD Reporting Station
Clear Clear  
Wind Chill: 77°   Ceiling: Unl
Heat Index: 79°   Visibility: 6mi
Dew Point: 63°   Wind: 21mph
Humidity: 61%   Direction: 10°N
Pressure: 29.91"   Gusts: NA
Location:  23.25°S, 155.53°E
Report Text: YBUD 260600Z AUTO 01018KT 9999 // NCD 25/17 Q1013
Loading
Personal Weather Stations






























Interactive Weather Map New forecast layout! Learn more

10-Day Weather Forecast

Advertisements
Track Severe Weather on mobile